Oregon, Ohio
Current Conditions -  °F | °C
As of 8:04 AM on Sunday 21 Dec 2014 (Local Time) from KTDZ Reporting Station
Haze Haze  
Wind Chill: 22°   Ceiling: Unl
Heat Index: 22°   Visibility: 2.5mi
Dew Point: 18°   Wind: 0mph
Humidity: 85%   Direction: NA
Pressure: 30.32"   Gusts: NA
Location:  41.65°N, 83.42°W
Report Text: KTDZ 211304Z AUTO 00000KT 2 1/2SM BR CLR M06/M08 A3032 RMK AO2 T10561078 TSNO
Loading
Personal Weather Stations






























Interactive Weather Map New forecast layout! Learn more

10-Day Weather Forecast

Advertisements
Track Severe Weather on mobile